Olivares, Spain
Current Conditions -  °F | °C
As of 3:00 PM on Monday 24 Nov 2014 (Local Time) from LEZL Reporting Station
Few Clouds Few Clouds  
Wind Chill: 70°   Ceiling: Unl
Heat Index: 70°   Visibility: 6mi
Dew Point: 55°   Wind: 7mph
Humidity: 60%   Direction: 220°SW
Pressure: 29.97"   Gusts: NA
Location:  37.42°N, 6.16°W
Report Text: LEZL 241400Z 22006KT 190V250 9999 FEW035 21/13 Q1015 NOSIG
Loading
Personal Weather Stations






























Interactive Weather Map New forecast layout! Learn more

10-Day Weather Forecast

Advertisements
Track Severe Weather on mobile